createdAt,value
2023-03-31T00:02:18.662Z,1.53
2023-03-31T00:04:51.936Z,1.54
2023-03-31T00:07:27.625Z,1.42
2023-03-31T00:10:10.723Z,1.41
2023-03-31T00:12:57.625Z,1.59
2023-03-31T00:15:30.869Z,1.62
2023-03-31T00:18:06.674Z,1.54
2023-03-31T00:28:07.592Z,1.66
2023-03-31T00:30:47.697Z,1.56
2023-03-31T00:33:22.977Z,1.64
2023-03-31T00:35:58.631Z,1.76
2023-03-31T00:38:33.374Z,1.72
2023-03-31T00:41:08.621Z,1.76
2023-03-31T00:54:54.370Z,1.97
2023-03-31T00:57:32.973Z,1.93
2023-03-31T01:00:18.663Z,1.70
2023-03-31T01:02:57.303Z,1.66
2023-03-31T01:05:42.613Z,1.95
2023-03-31T01:08:19.917Z,1.61
2023-03-31T01:22:00.578Z,1.72
2023-03-31T01:25:37.614Z,1.69
2023-03-31T01:28:27.874Z,1.88
2023-03-31T01:31:55.276Z,1.85
2023-03-31T01:35:01.053Z,1.93
2023-03-31T01:48:40.574Z,1.72
2023-03-31T01:51:25.636Z,2.11
2023-03-31T01:54:13.045Z,1.83
2023-03-31T01:57:03.282Z,2.09
2023-03-31T01:59:49.003Z,1.92
2023-03-31T02:02:38.779Z,1.98
2023-03-31T02:15:57.675Z,1.88
2023-03-31T02:18:35.409Z,2.28
2023-03-31T02:21:19.593Z,2.03
2023-03-31T02:23:53.332Z,2.12
2023-03-31T02:26:34.616Z,2.51
2023-03-31T02:43:11.585Z,2.24
2023-03-31T02:45:54.669Z,2.29
2023-03-31T02:48:35.790Z,2.42
2023-03-31T02:51:45.648Z,2.49
2023-03-31T02:54:46.150Z,2.50
2023-03-31T02:58:06.782Z,2.12
2023-03-31T03:08:36.588Z,2.39
2023-03-31T03:11:28.615Z,2.67
2023-03-31T03:14:16.814Z,2.51
2023-03-31T03:17:05.605Z,2.69
2023-03-31T03:19:41.846Z,2.55
2023-03-31T03:22:15.604Z,2.41
2023-03-31T03:35:28.272Z,2.53
2023-03-31T03:38:01.986Z,2.44
2023-03-31T03:40:35.584Z,2.48
2023-03-31T03:43:08.882Z,2.60
2023-03-31T03:45:42.590Z,2.73
2023-03-31T03:48:16.064Z,2.43
2023-03-31T03:50:51.610Z,2.80
2023-03-31T03:53:24.860Z,2.41
2023-03-31T04:05:19.567Z,2.78
2023-03-31T04:07:48.444Z,2.93
2023-03-31T04:10:28.594Z,2.92
2023-03-31T04:13:01.959Z,2.85
2023-03-31T04:15:35.591Z,2.85
2023-03-31T04:18:09.819Z,2.98
2023-03-31T04:31:06.570Z,2.96
2023-03-31T04:33:46.619Z,3.04
2023-03-31T04:36:21.084Z,3.26
2023-03-31T04:38:57.111Z,3.28
2023-03-31T04:41:30.814Z,3.46
2023-03-31T04:57:46.580Z,3.68
2023-03-31T05:00:21.821Z,3.60
2023-03-31T05:02:56.692Z,3.52
2023-03-31T05:05:29.856Z,3.60
2023-03-31T05:08:03.621Z,3.40
2023-03-31T05:10:37.357Z,3.40
2023-03-31T05:13:12.626Z,3.40
2023-03-31T05:22:57.558Z,3.39
2023-03-31T05:25:37.594Z,3.51
2023-03-31T05:28:12.857Z,3.67
2023-03-31T05:30:46.594Z,3.60
2023-03-31T05:33:19.838Z,3.49
2023-03-31T05:35:53.603Z,3.63
2023-03-31T05:38:27.518Z,3.78
2023-03-31T05:51:17.578Z,3.55
2023-03-31T05:53:57.584Z,3.84
2023-03-31T05:56:30.821Z,3.80
2023-03-31T05:59:06.608Z,3.87
2023-03-31T06:01:39.953Z,3.81
2023-03-31T06:17:55.665Z,3.68
2023-03-31T06:20:28.889Z,3.67
2023-03-31T06:23:02.580Z,3.58
2023-03-31T06:25:50.027Z,3.56
2023-03-31T06:28:31.581Z,3.52
2023-03-31T06:31:08.479Z,3.71
2023-03-31T06:44:05.569Z,3.69
2023-03-31T06:46:51.681Z,3.47
2023-03-31T06:49:25.053Z,3.24
2023-03-31T06:51:58.586Z,3.52
2023-03-31T06:54:32.013Z,3.41
2023-03-31T06:57:05.607Z,3.68
2023-03-31T07:10:18.217Z,5.42
2023-03-31T07:12:52.191Z,5.88
2023-03-31T07:15:26.570Z,6.53
2023-03-31T07:17:59.888Z,7.01
2023-03-31T07:20:33.591Z,7.28
2023-03-31T07:23:07.395Z,7.35
2023-03-31T07:38:22.580Z,7.48
2023-03-31T07:41:07.777Z,7.34
2023-03-31T07:43:48.599Z,7.39
2023-03-31T07:46:25.123Z,7.27
2023-03-31T07:49:05.661Z,7.51
2023-03-31T07:51:38.853Z,7.49
2023-03-31T08:04:29.585Z,7.38
2023-03-31T08:07:09.572Z,7.13
2023-03-31T08:09:45.565Z,7.40
2023-03-31T08:12:21.198Z,7.56
2023-03-31T08:14:54.918Z,7.38
2023-03-31T08:17:28.581Z,7.20
2023-03-31T08:30:40.598Z,7.15
2023-03-31T08:33:13.750Z,6.98
2023-03-31T08:35:53.619Z,6.90
2023-03-31T08:38:26.811Z,7.08
2023-03-31T08:41:06.598Z,6.51
2023-03-31T08:57:57.540Z,6.14
2023-03-31T09:00:53.600Z,5.56
2023-03-31T09:03:36.958Z,5.25
2023-03-31T09:06:23.583Z,5.39
2023-03-31T09:09:03.105Z,5.47
2023-03-31T09:11:52.563Z,5.64
2023-03-31T09:25:13.556Z,5.41
2023-03-31T09:27:49.146Z,5.43
2023-03-31T09:30:29.570Z,5.21
2023-03-31T09:33:15.128Z,5.03
2023-03-31T09:35:55.609Z,4.99
2023-03-31T09:38:29.397Z,4.43
2023-03-31T09:51:30.535Z,4.15
2023-03-31T09:54:21.568Z,4.00
2023-03-31T09:56:55.567Z,4.25
2023-03-31T09:59:37.254Z,4.12
2023-03-31T10:02:34.359Z,3.89
2023-03-31T10:18:56.584Z,3.72
2023-03-31T10:21:37.563Z,3.41
2023-03-31T10:24:18.283Z,3.58
2023-03-31T10:26:55.359Z,3.52
2023-03-31T10:29:39.558Z,3.16
2023-03-31T10:32:23.814Z,3.28
2023-03-31T10:45:37.847Z,3.57
2023-03-31T10:48:30.581Z,4.05
2023-03-31T10:51:14.206Z,4.25
2023-03-31T10:53:57.570Z,4.22
2023-03-31T10:56:42.027Z,5.23
2023-03-31T11:10:16.556Z,5.87
2023-03-31T11:13:04.591Z,5.52
2023-03-31T11:15:47.059Z,5.65
2023-03-31T11:18:53.566Z,5.14
2023-03-31T11:21:43.332Z,5.13
2023-03-31T11:38:46.550Z,3.91
2023-03-31T11:41:24.840Z,3.30
2023-03-31T11:44:11.622Z,3.37
2023-03-31T11:46:52.781Z,3.53
2023-03-31T11:49:37.601Z,3.41
2023-03-31T11:52:17.627Z,3.53
2023-03-31T12:05:18.552Z,3.30
2023-03-31T12:08:09.560Z,3.15
2023-03-31T12:10:51.343Z,3.25
2023-03-31T12:13:55.572Z,3.13
2023-03-31T12:16:39.908Z,3.58
2023-03-31T12:30:20.532Z,3.56
2023-03-31T12:33:10.609Z,3.41
2023-03-31T12:36:02.208Z,3.66
2023-03-31T12:39:04.549Z,3.56
2023-03-31T12:42:01.002Z,3.59
2023-03-31T12:58:51.551Z,3.43
2023-03-31T13:01:25.459Z,3.24
2023-03-31T13:04:16.935Z,3.13
2023-03-31T13:06:56.665Z,2.95
2023-03-31T13:12:24.945Z,2.88
2023-03-31T13:25:49.525Z,2.81
2023-03-31T13:28:45.727Z,2.88
2023-03-31T13:31:18.890Z,2.93
2023-03-31T13:34:03.777Z,2.97
2023-03-31T13:37:10.824Z,3.06
2023-03-31T13:50:53.518Z,3.06
2023-03-31T13:54:04.581Z,3.21
2023-03-31T13:57:17.329Z,3.30
2023-03-31T14:00:30.559Z,3.24
2023-03-31T14:03:29.080Z,3.23
2023-03-31T14:06:21.638Z,3.40
2023-03-31T14:20:09.561Z,3.65
2023-03-31T14:23:06.204Z,3.23
2023-03-31T14:25:59.585Z,3.22
2023-03-31T14:29:00.903Z,3.35
2023-03-31T14:31:53.866Z,3.65
2023-03-31T14:45:12.565Z,3.66
2023-03-31T14:47:55.918Z,3.67
2023-03-31T14:50:40.550Z,3.46
2023-03-31T14:53:16.280Z,3.26
2023-03-31T14:55:58.726Z,3.40
2023-03-31T14:58:38.437Z,3.31
2023-03-31T15:11:37.536Z,3.53
2023-03-31T15:14:17.715Z,3.41
2023-03-31T15:16:51.198Z,3.37
2023-03-31T15:19:28.549Z,3.40
2023-03-31T15:22:11.056Z,3.36
2023-03-31T15:24:51.572Z,3.44
2023-03-31T15:27:37.074Z,3.16
2023-03-31T15:37:43.791Z,2.83
2023-03-31T15:40:23.483Z,2.80
2023-03-31T15:43:20.229Z,2.69
2023-03-31T15:46:00.735Z,2.57
2023-03-31T15:48:39.533Z,2.33
2023-03-31T15:51:31.903Z,1.93
2023-03-31T16:04:36.562Z,1.38
2023-03-31T16:07:26.548Z,1.51
2023-03-31T16:10:05.185Z,1.38
2023-03-31T16:12:56.229Z,1.37
2023-03-31T16:15:36.574Z,1.15
2023-03-31T16:18:32.569Z,1.35
2023-03-31T16:31:46.641Z,1.26
2023-03-31T16:34:19.908Z,1.26
2023-03-31T16:36:53.608Z,1.31
2023-03-31T16:39:27.090Z,1.22
2023-03-31T16:42:00.704Z,1.25
2023-03-31T16:44:33.795Z,1.13
2023-03-31T16:47:11.631Z,1.30
2023-03-31T17:00:21.548Z,1.13
2023-03-31T17:02:50.544Z,1.27
2023-03-31T17:05:30.808Z,1.19
2023-03-31T17:08:23.638Z,1.30
2023-03-31T17:11:08.558Z,1.19
2023-03-31T17:13:43.187Z,1.33
2023-03-31T17:26:33.504Z,2.38
2023-03-31T17:29:15.389Z,2.87
2023-03-31T17:31:49.818Z,3.28
2023-03-31T17:34:23.575Z,3.67
2023-03-31T17:36:56.880Z,4.09
2023-03-31T17:53:12.521Z,4.48
2023-03-31T17:55:45.762Z,3.43
2023-03-31T17:58:19.565Z,3.29
2023-03-31T18:00:52.928Z,3.02
2023-03-31T18:03:26.550Z,2.31
2023-03-31T18:06:04.679Z,1.89
2023-03-31T18:08:47.573Z,1.97
2023-03-31T18:20:44.632Z,1.76
2023-03-31T18:23:12.036Z,1.62
2023-03-31T18:25:54.532Z,1.66
2023-03-31T18:28:28.034Z,1.66
2023-03-31T18:31:01.532Z,1.71
2023-03-31T18:33:41.766Z,1.57
2023-03-31T18:46:39.540Z,1.62
2023-03-31T18:49:20.262Z,1.61
2023-03-31T18:51:53.750Z,1.71
2023-03-31T18:54:27.528Z,2.20
2023-03-31T18:57:00.816Z,2.26
2023-03-31T19:13:20.541Z,1.53
2023-03-31T19:15:53.762Z,1.59
2023-03-31T19:18:28.148Z,1.61
2023-03-31T19:21:02.562Z,1.73
2023-03-31T19:23:36.626Z,1.67
2023-03-31T19:26:14.377Z,1.66
2023-03-31T19:38:26.517Z,1.89
2023-03-31T19:41:06.538Z,1.89
2023-03-31T19:43:39.801Z,2.06
2023-03-31T19:46:15.596Z,2.14
2023-03-31T19:48:48.848Z,2.27
2023-03-31T19:51:23.299Z,1.87
2023-03-31T20:05:11.535Z,1.98
2023-03-31T20:07:44.830Z,1.97
2023-03-31T20:10:18.587Z,1.87
2023-03-31T20:12:51.886Z,2.21
2023-03-31T20:15:25.535Z,2.05
2023-03-31T20:17:58.908Z,1.89
2023-03-31T20:34:18.564Z,2.03
2023-03-31T20:36:51.799Z,2.34
2023-03-31T20:39:25.524Z,2.56
2023-03-31T20:41:58.836Z,2.22
2023-03-31T20:44:32.534Z,2.33
2023-03-31T20:47:05.872Z,2.42
2023-03-31T20:59:56.493Z,2.08
2023-03-31T21:02:36.589Z,1.97
2023-03-31T21:05:10.056Z,2.01
2023-03-31T21:07:43.524Z,1.73
2023-03-31T21:10:17.118Z,1.54
2023-03-31T21:12:50.513Z,1.48
2023-03-31T21:26:04.546Z,1.28
2023-03-31T21:28:38.469Z,1.24
2023-03-31T21:31:14.628Z,1.37
2023-03-31T21:33:47.792Z,1.32
2023-03-31T21:36:23.605Z,1.17
2023-03-31T21:38:57.588Z,1.27
2023-03-31T21:52:21.510Z,1.27
2023-03-31T21:55:01.529Z,1.36
2023-03-31T21:57:34.818Z,1.21
2023-03-31T22:00:09.133Z,1.26
2023-03-31T22:02:42.821Z,1.31
2023-03-31T22:05:16.591Z,1.33
2023-03-31T22:07:51.750Z,1.14
2023-03-31T22:20:40.503Z,1.23
2023-03-31T22:23:22.517Z,1.17
2023-03-31T22:26:01.886Z,1.13
2023-03-31T22:28:42.521Z,1.09
2023-03-31T22:31:15.912Z,1.04
2023-03-31T22:33:50.198Z,0.89
2023-03-31T22:47:02.693Z,0.92
2023-03-31T22:49:35.772Z,0.78
2023-03-31T22:52:09.526Z,0.85
2023-03-31T22:54:42.745Z,0.87
2023-03-31T22:57:16.613Z,0.79
2023-03-31T23:13:53.496Z,0.87
2023-03-31T23:16:33.526Z,0.99
2023-03-31T23:19:07.141Z,0.96
2023-03-31T23:21:41.533Z,1.00
2023-03-31T23:24:14.873Z,1.00
2023-03-31T23:26:48.511Z,0.94
2023-03-31T23:40:00.567Z,0.99
2023-03-31T23:42:33.817Z,1.04
2023-03-31T23:45:07.512Z,1.07
2023-03-31T23:47:40.915Z,0.93
2023-03-31T23:50:15.505Z,0.95
2023-03-31T23:52:48.817Z,0.95
